createdAt,value
2023-04-02T00:04:03.403Z,6.56
2023-04-02T00:09:14.113Z,7.00
2023-04-02T00:14:21.904Z,6.67
2023-04-02T00:19:42.084Z,6.58
2023-04-02T00:24:43.839Z,5.62
2023-04-02T00:29:50.614Z,6.01
2023-04-02T00:34:53.377Z,5.92
2023-04-02T00:40:01.599Z,6.11
2023-04-02T00:45:04.805Z,6.20
2023-04-02T00:50:21.813Z,6.08
2023-04-02T00:55:25.581Z,5.90
2023-04-02T01:00:29.280Z,5.51
2023-04-02T01:05:35.165Z,5.42
2023-04-02T01:11:02.730Z,4.49
2023-04-02T01:16:33.034Z,3.98
2023-04-02T01:21:56.478Z,5.04
2023-04-02T01:27:13.821Z,5.75
2023-04-02T01:32:19.851Z,6.24
2023-04-02T01:37:39.718Z,5.63
2023-04-02T01:42:54.010Z,5.95
2023-04-02T01:47:56.069Z,6.19
2023-04-02T01:53:07.222Z,6.15
2023-04-02T01:58:12.826Z,6.36
2023-04-02T02:03:18.947Z,6.31
2023-04-02T02:08:29.763Z,5.94
2023-04-02T02:13:32.223Z,6.13
2023-04-02T02:18:34.552Z,6.02
2023-04-02T02:23:37.031Z,6.31
2023-04-02T02:28:43.649Z,6.54
2023-04-02T02:33:56.442Z,6.53
2023-04-02T02:39:12.278Z,5.94
2023-04-02T02:44:36.291Z,6.19
2023-04-02T02:49:43.463Z,6.59
2023-04-02T02:55:00.500Z,6.90
2023-04-02T03:00:11.657Z,6.81
2023-04-02T03:05:21.096Z,7.07
2023-04-02T03:10:25.378Z,6.84
2023-04-02T03:15:43.569Z,6.98
2023-04-02T03:20:49.609Z,7.03
2023-04-02T03:26:18.343Z,6.57
2023-04-02T03:31:31.369Z,6.92
2023-04-02T03:36:53.531Z,6.97
2023-04-02T03:42:06.642Z,7.11
2023-04-02T03:47:18.005Z,7.15
2023-04-02T03:52:28.550Z,6.71
2023-04-02T03:57:40.408Z,6.40
2023-04-02T04:02:45.400Z,6.36
2023-04-02T04:07:52.745Z,5.44
2023-04-02T04:13:02.374Z,5.60
2023-04-02T04:18:24.256Z,5.79
2023-04-02T04:23:33.915Z,5.97
2023-04-02T04:28:43.677Z,5.63
2023-04-02T04:33:50.598Z,5.87
2023-04-02T04:39:08.024Z,5.30
2023-04-02T04:44:25.307Z,5.24
2023-04-02T04:49:58.295Z,5.52
2023-04-02T04:55:01.341Z,5.53
2023-04-02T05:00:36.413Z,4.74
2023-04-02T05:05:40.706Z,4.79
2023-04-02T05:10:52.167Z,5.31
2023-04-02T05:16:13.341Z,5.61
2023-04-02T05:21:27.517Z,5.39
2023-04-02T05:26:46.692Z,3.45
2023-04-02T05:32:04.432Z,2.69
2023-04-02T05:37:17.927Z,3.43
2023-04-02T05:42:27.715Z,3.97
2023-04-02T05:47:40.884Z,3.93
2023-04-02T05:52:51.830Z,4.12
2023-04-02T05:58:29.555Z,3.94
2023-04-02T06:03:44.701Z,4.81
2023-04-02T06:09:05.553Z,4.82
2023-04-02T06:14:11.833Z,5.57
2023-04-02T06:19:22.297Z,5.85
2023-04-02T06:24:27.718Z,5.23
2023-04-02T06:29:38.052Z,5.53
2023-04-02T06:34:42.572Z,5.81
2023-04-02T06:39:47.257Z,6.44
2023-04-02T06:44:52.174Z,5.62
2023-04-02T06:50:13.533Z,6.26
2023-04-02T06:55:31.676Z,6.65
2023-04-02T07:00:46.123Z,5.93
2023-04-02T07:05:54.542Z,6.43
2023-04-02T07:10:56.923Z,6.62
2023-04-02T07:15:59.654Z,6.67
2023-04-02T07:21:01.952Z,6.84
2023-04-02T07:26:05.954Z,7.02
2023-04-02T07:31:25.888Z,7.35
2023-04-02T07:36:29.540Z,7.76
2023-04-02T07:41:31.459Z,7.38
2023-04-02T07:46:33.261Z,4.83
2023-04-02T07:51:35.089Z,1.85
2023-04-02T07:56:37.454Z,3.40
2023-04-02T08:01:40.181Z,0.45
2023-04-02T08:06:42.047Z,0.95
2023-04-02T08:11:43.907Z,4.28
2023-04-02T08:16:54.237Z,3.93
2023-04-02T08:21:56.633Z,2.95
2023-04-02T08:26:58.480Z,3.01
2023-04-02T08:32:00.795Z,1.95
2023-04-02T08:37:02.605Z,2.79
2023-04-02T08:42:21.688Z,2.41
2023-04-02T08:47:26.265Z,2.42
2023-04-02T08:52:34.052Z,0.82
2023-04-02T08:57:47.513Z,1.17
2023-04-02T09:03:00.609Z,1.85
2023-04-02T09:08:06.091Z,1.12
2023-04-02T09:13:22.640Z,1.85
2023-04-02T09:18:24.536Z,2.51
2023-04-02T09:23:27.939Z,1.82
2023-04-02T09:28:29.685Z,1.23
2023-04-02T09:33:49.935Z,0.95
2023-04-02T09:39:01.567Z,2.92
2023-04-02T09:44:25.624Z,5.07
2023-04-02T09:49:31.579Z,4.52
2023-04-02T09:54:33.392Z,3.81
2023-04-02T09:59:35.120Z,3.71
2023-04-02T10:04:47.160Z,4.18
2023-04-02T10:09:58.644Z,4.70
2023-04-02T10:15:03.155Z,4.54
2023-04-02T10:20:27.484Z,2.20
2023-04-02T10:25:36.631Z,2.11
2023-04-02T10:31:01.931Z,6.81
2023-04-02T10:36:30.418Z,2.40
2023-04-02T10:42:01.042Z,4.12
2023-04-02T10:47:37.967Z,6.30
2023-04-02T10:52:49.224Z,3.27
2023-04-02T10:57:54.169Z,2.52
2023-04-02T11:03:13.253Z,1.81
2023-04-02T11:08:41.592Z,3.50
2023-04-02T11:13:58.645Z,2.21
2023-04-02T11:19:16.000Z,5.17
2023-04-02T11:24:31.541Z,5.44
2023-04-02T11:29:36.406Z,4.68
2023-04-02T11:34:40.966Z,4.10
2023-04-02T11:39:58.295Z,2.97
2023-04-02T11:45:21.029Z,3.24
2023-04-02T11:50:35.204Z,4.07
2023-04-02T11:55:40.177Z,3.52
2023-04-02T12:01:00.456Z,3.30
2023-04-02T12:06:18.761Z,2.02
2023-04-02T12:11:32.653Z,2.50
2023-04-02T12:16:35.468Z,2.05
2023-04-02T12:21:37.885Z,1.84
2023-04-02T12:26:42.412Z,2.81
2023-04-02T12:31:46.402Z,2.40
2023-04-02T12:36:55.750Z,2.44
2023-04-02T12:41:57.833Z,0.42
2023-04-02T12:46:59.648Z,0.11
2023-04-02T12:52:10.695Z,1.93
2023-04-02T12:57:28.835Z,3.81
2023-04-02T13:02:43.620Z,4.18
2023-04-02T13:07:47.412Z,2.86
2023-04-02T13:12:56.528Z,3.43
2023-04-02T13:18:22.956Z,2.31
2023-04-02T13:23:36.956Z,1.16
2023-04-02T13:28:38.976Z,3.38
2023-04-02T13:33:40.912Z,6.00
2023-04-02T13:38:42.916Z,3.07
2023-04-02T13:43:44.728Z,1.31
2023-04-02T13:48:46.949Z,2.64
2023-04-02T13:53:54.131Z,2.85
2023-04-02T13:58:55.896Z,3.39
2023-04-02T14:03:58.000Z,3.43
2023-04-02T14:09:04.849Z,4.23
2023-04-02T14:14:13.760Z,1.71
2023-04-02T14:19:21.448Z,5.30
2023-04-02T14:24:52.100Z,6.05
2023-04-02T14:30:00.676Z,3.11
2023-04-02T14:35:22.426Z,3.53
2023-04-02T14:40:46.384Z,2.00
2023-04-02T14:45:54.079Z,1.75
2023-04-02T14:51:15.164Z,2.35
2023-04-02T14:56:20.842Z,4.48
2023-04-02T15:01:32.260Z,3.50
2023-04-02T15:06:38.362Z,2.22
2023-04-02T15:11:57.124Z,3.87
2023-04-02T15:16:59.003Z,4.44
2023-04-02T15:22:13.458Z,4.04
2023-04-02T15:27:36.395Z,3.09
2023-04-02T15:32:40.596Z,1.95
2023-04-02T15:37:54.298Z,2.50
2023-04-02T15:43:04.277Z,5.07
2023-04-02T15:48:36.802Z,6.63
2023-04-02T15:53:52.365Z,7.97
2023-04-02T15:59:25.936Z,7.95
2023-04-02T16:04:55.934Z,7.84
2023-04-02T16:10:18.016Z,9.07
2023-04-02T16:15:28.725Z,8.75
2023-04-02T16:20:36.830Z,7.29
2023-04-02T16:26:05.502Z,8.13
2023-04-02T16:31:16.452Z,7.90
2023-04-02T16:36:54.700Z,7.88
2023-04-02T16:42:05.335Z,8.64
2023-04-02T16:47:13.068Z,6.82
2023-04-02T16:52:35.359Z,5.64
2023-04-02T16:57:50.553Z,6.50
2023-04-02T17:03:17.468Z,6.98
2023-04-02T17:08:30.405Z,7.89
2023-04-02T17:13:55.968Z,8.15
2023-04-02T17:18:58.419Z,7.08
2023-04-02T17:24:02.967Z,7.97
2023-04-02T17:29:12.779Z,8.58
2023-04-02T17:34:17.098Z,8.40
2023-04-02T17:39:36.078Z,7.89
2023-04-02T17:45:04.252Z,7.55
2023-04-02T17:50:12.242Z,7.61
2023-04-02T17:55:59.244Z,7.21
2023-04-02T18:01:30.140Z,7.43
2023-04-02T18:06:43.426Z,8.13
2023-04-02T18:11:45.111Z,8.65
2023-04-02T18:17:01.355Z,8.45
2023-04-02T18:22:15.609Z,4.00
2023-04-02T18:27:45.232Z,5.77
2023-04-02T18:33:10.667Z,6.53
2023-04-02T18:38:21.669Z,7.29
2023-04-02T18:43:41.932Z,7.49
2023-04-02T18:48:53.613Z,6.43
2023-04-02T18:54:19.727Z,2.65
2023-04-02T18:59:41.398Z,4.91
2023-04-02T19:04:53.005Z,6.02
2023-04-02T19:09:59.609Z,7.12
2023-04-02T19:15:02.083Z,5.86
2023-04-02T19:20:31.707Z,5.49
2023-04-02T19:26:02.725Z,6.88
2023-04-02T19:31:15.876Z,6.68
2023-04-02T19:36:41.688Z,6.95
2023-04-02T19:41:52.278Z,7.34
2023-04-02T19:46:54.134Z,7.38
2023-04-02T19:51:56.846Z,6.95
2023-04-02T19:56:59.950Z,7.42
2023-04-02T20:02:05.921Z,8.08
2023-04-02T20:07:07.618Z,7.81
2023-04-02T20:12:09.710Z,7.70
2023-04-02T20:17:11.683Z,6.05
2023-04-02T20:22:13.403Z,5.10
2023-04-02T20:27:15.392Z,3.55
2023-04-02T20:32:17.667Z,5.63
2023-04-02T20:37:19.395Z,5.96
2023-04-02T20:42:21.077Z,5.63
2023-04-02T20:47:22.842Z,6.44
2023-04-02T20:52:24.635Z,7.16
2023-04-02T20:57:29.446Z,4.13
2023-04-02T21:02:31.160Z,1.12
2023-04-02T21:07:33.071Z,2.31
2023-04-02T21:12:34.812Z,4.20
2023-04-02T21:17:36.639Z,5.77
2023-04-02T21:22:38.407Z,5.93
2023-04-02T21:27:40.388Z,6.01
2023-04-02T21:32:42.275Z,5.58
2023-04-02T21:37:44.299Z,7.20
2023-04-02T21:42:47.065Z,7.77
2023-04-02T21:47:48.798Z,8.11
2023-04-02T21:52:50.501Z,8.42
2023-04-02T21:57:52.239Z,8.03
2023-04-02T22:02:54.038Z,6.32
2023-04-02T22:07:55.844Z,8.02
2023-04-02T22:12:57.639Z,8.04
2023-04-02T22:17:59.413Z,8.20
2023-04-02T22:23:01.078Z,8.67
2023-04-02T22:28:02.795Z,8.87
2023-04-02T22:33:04.657Z,8.67
2023-04-02T22:38:06.754Z,8.77
2023-04-02T22:43:08.416Z,8.76
2023-04-02T22:48:10.127Z,7.69
2023-04-02T22:53:15.158Z,7.93
2023-04-02T22:58:16.826Z,8.19
2023-04-02T23:03:18.491Z,7.98
2023-04-02T23:08:20.199Z,7.33
2023-04-02T23:13:22.015Z,7.56
2023-04-02T23:18:23.762Z,6.60
2023-04-02T23:23:26.505Z,7.65
2023-04-02T23:28:28.213Z,8.11
2023-04-02T23:33:30.169Z,8.22
2023-04-02T23:38:31.836Z,8.39
2023-04-02T23:43:33.622Z,5.40
2023-04-02T23:48:35.449Z,2.66
2023-04-02T23:53:37.164Z,0.37
2023-04-02T23:58:38.856Z,2.13
